CheckWX is a tool to help pilots better visualize weather data.  It is not intended as a substitute for an official pre-flight weather briefing.

13:16:26 UTC

FJDG METAR
Diego Garcia NSF Airport
Camp Justice, British Indian Ocean Territory
Current

21 mins ago

FJDG 221255Z 10005KT 9000 -SHRA SCT021 BKN042 BKN080 28/27 A2981 RMK SLP091 T2 SET P0004 T02840273
Observed
Feb-22 @ 12:55 UTC
Wind
  • 100° at 5 KTS
Visibility
8,996 meters
Flight Rules
VFR
Conditions
Light Rain
Cloud Levels
  • Scattered at 2,100' AGL
  • Broken at 4,200' AGL
  • Broken at 8,000' AGL
Temperature
28°C / 82°F
Dewpoint
27°C / 81°F
Humidity
94%
Altimeter
29.81" Hg
Pressure
1009.1 hPa
Current Rain
0.04"
Previous

51 mins ago

FJDG 221225Z 18008KT 6000 -SHRA FEW021 BKN040 BKN080 28/25 A2981 RMK SLP091 T2 SET
Observed
Feb-22 @ 12:25 UTC
Wind
  • 180° at 8 KTS
Visibility
6,003 meters
Flight Rules
MVFR
Conditions
Light Rain
Cloud Levels
  • Few at 2,100' AGL
  • Broken at 4,000' AGL
  • Broken at 8,000' AGL
Temperature
28°C / 82°F
Dewpoint
25°C / 77°F
Humidity
84%
Altimeter
29.81" Hg
Pressure
1009.1 hPa
Previous

1 hour ago

FJDG 221155Z 00000KT 9999 SCT025 BKN046 BKN080 30/27 A2981 RMK SLP091 T2 SET 70015 8/870 T02980268 10323 20298 55007
Observed
Feb-22 @ 11:55 UTC
Visibility
10,000+ meters
Flight Rules
VFR
Cloud Levels
  • Scattered at 2,500' AGL
  • Broken at 4,600' AGL
  • Broken at 8,000' AGL
Temperature
30°C / 86°F
Dewpoint
27°C / 81°F
Humidity
84%
Altimeter
29.81" Hg
Pressure
1009.1 hPa